Time;durP1;ratioP1;P1;durP2;ratioP2;P2;SDS_P1;SDS_P2;PMS_P1;PMS_P2;Temp;Humidity;BMP_temperature;BMP_pressure;BME280_temperature;BME280_humidity;BME280_pressure;Samples;Min_cycle;Max_cycle;Signal;HPM_P1;HPM_P2
2021/05/05 00:01:20;;;;;;;2.80;2.53;;;;;;;;;;5122118;28;20473;-79
2021/05/05 00:03:46;;;;;;;3.33;2.27;;;8.90;99.90;;;;;;5123646;28;20771;-81
2021/05/05 00:06:19;;;;;;;2.50;2.40;;;8.80;99.90;;;;;;5123706;28;20443;-81
2021/05/05 00:08:46;;;;;;;5.43;1.87;;;;;;;;;;5124264;28;20435;-81
2021/05/05 00:11:15;;;;;;;1.80;1.50;;;8.90;99.90;;;;;;5124080;28;20482;-82
2021/05/05 00:13:41;;;;;;;1.73;1.50;;;9.00;99.90;;;;;;5123588;28;20446;-81
2021/05/05 00:16:08;;;;;;;1.70;1.60;;;8.90;99.90;;;;;;5123233;28;20443;-80
2021/05/05 00:18:35;;;;;;;3.80;2.30;;;9.10;99.90;;;;;;5122983;28;20439;-80
2021/05/05 00:21:01;;;;;;;1.50;1.40;;;8.90;99.90;;;;;;5123311;28;20588;-80
2021/05/05 00:23:28;;;;;;;2.30;2.10;;;8.90;99.90;;;;;;5124460;28;20499;-80
2021/05/05 00:25:54;;;;;;;3.10;1.87;;;8.90;99.90;;;;;;5129557;28;20447;-81
2021/05/05 00:28:20;;;;;;;2.77;1.80;;;8.90;99.90;;;;;;5132943;28;20447;-80
2021/05/05 00:30:46;;;;;;;1.90;1.80;;;8.80;99.90;;;;;;5132975;28;20458;-80
2021/05/05 00:33:14;;;;;;;4.00;2.23;;;;;;;;;;5134448;28;20465;-80
2021/05/05 00:35:40;;;;;;;3.60;2.10;;;8.90;99.90;;;;;;5132711;28;20428;-81
2021/05/05 00:38:09;;;;;;;2.60;1.93;;;7.90;99.90;;;;;;5133175;28;20451;-81
2021/05/05 00:40:35;;;;;;;2.30;2.10;;;8.70;99.90;;;;;;5131964;28;20486;-80
2021/05/05 00:43:02;;;;;;;1.83;1.70;;;8.50;99.90;;;;;;5133724;28;20469;-80
2021/05/05 00:45:28;;;;;;;2.50;2.30;;;8.60;99.90;;;;;;5134412;28;20451;-80
2021/05/05 00:47:54;;;;;;;4.50;1.97;;;8.60;99.90;;;;;;5135270;28;20421;-80
2021/05/05 00:50:21;;;;;;;1.93;1.83;;;8.60;99.90;;;;;;5134186;28;20492;-80
2021/05/05 00:52:47;;;;;;;2.80;1.87;;;8.60;99.90;;;;;;5131012;28;20478;-80
2021/05/05 00:55:14;;;;;;;4.30;2.47;;;;;;;;;;5136685;28;20449;-80
2021/05/05 00:57:43;;;;;;;1.97;1.87;;;8.90;99.90;;;;;;5135114;28;20461;-80
2021/05/05 01:00:11;;;;;;;2.30;2.20;;;8.60;99.90;;;;;;5131034;28;20550;-80
2021/05/05 01:02:38;;;;;;;3.10;2.73;;;8.50;99.90;;;;;;5131959;28;20431;-80
2021/05/05 01:05:06;;;;;;;3.93;3.50;;;8.50;99.90;;;;;;5129321;28;20441;-80
2021/05/05 01:07:34;;;;;;;5.93;1.90;;;8.60;99.90;;;;;;5133107;28;20447;-80
2021/05/05 01:10:01;;;;;;;4.13;3.17;;;8.80;99.90;;;;;;5135608;28;20442;-80
2021/05/05 01:12:27;;;;;;;7.83;2.10;;;8.50;99.90;;;;;;5138530;28;20475;-81
2021/05/05 01:14:56;;;;;;;5.37;2.03;;;8.50;99.90;;;;;;5135311;28;20443;-79
2021/05/05 01:17:22;;;;;;;5.53;2.00;;;8.60;99.90;;;;;;5131693;28;20449;-79
2021/05/05 01:19:48;;;;;;;2.20;2.10;;;8.90;99.90;;;;;;5133540;28;20443;-79
2021/05/05 01:22:15;;;;;;;3.43;1.97;;;8.60;99.90;;;;;;5129101;28;20450;-80
2021/05/05 01:24:41;;;;;;;2.37;2.17;;;8.50;99.90;;;;;;5126453;28;20434;-81
2021/05/05 01:27:08;;;;;;;2.28;2.08;;;8.60;99.90;;;;;;5125475;28;20829;-81
2021/05/05 01:29:37;;;;;;;3.10;2.37;;;8.60;99.90;;;;;;5125125;28;20197;-80
2021/05/05 01:32:03;;;;;;;3.73;2.33;;;8.50;99.90;;;;;;5127441;28;20457;-80
2021/05/05 01:34:30;;;;;;;4.00;2.60;;;8.50;99.90;;;;;;5127868;28;20446;-80
2021/05/05 01:36:56;;;;;;;4.20;2.57;;;8.60;99.90;;;;;;5123693;28;20450;-80
2021/05/05 01:39:23;;;;;;;4.70;3.57;;;8.50;99.90;;;;;;5123805;28;20447;-81
2021/05/05 01:41:49;;;;;;;4.53;2.33;;;8.30;99.90;;;;;;5123419;28;20457;-81
2021/05/05 01:44:16;;;;;;;6.40;2.73;;;8.40;99.90;;;;;;5123965;28;20417;-80
2021/05/05 01:46:47;;;;;;;2.73;2.10;;;8.50;99.90;;;;;;5123281;28;20439;-81
2021/05/05 01:49:21;;;;;;;3.57;2.27;;;8.40;99.90;;;;;;5122500;28;20491;-80
2021/05/05 01:51:47;;;;;;;1.83;1.73;;;8.30;99.90;;;;;;5124891;28;20460;-80
2021/05/05 01:54:13;;;;;;;4.57;2.57;;;8.50;99.90;;;;;;5122636;28;20413;-81
2021/05/05 01:56:40;;;;;;;2.78;2.10;;;;;;;;;;5122693;28;20442;-81
2021/05/05 01:59:06;;;;;;;2.60;2.40;;;8.30;99.90;;;;;;5120370;28;20621;-81
2021/05/05 02:01:33;;;;;;;9.23;2.57;;;8.40;99.90;;;;;;5122118;28;20479;-81
2021/05/05 02:04:01;;;;;;;5.00;1.80;;;8.30;99.90;;;;;;5121915;28;20435;-80
2021/05/05 02:06:28;;;;;;;2.53;2.03;;;8.40;99.90;;;;;;5121435;28;20535;-80
2021/05/05 02:08:55;;;;;;;3.03;1.80;;;8.40;99.90;;;;;;5122434;28;20443;-80
2021/05/05 02:11:21;;;;;;;3.70;1.80;;;8.60;99.90;;;;;;5121160;28;20483;-81
2021/05/05 02:13:48;;;;;;;1.50;1.40;;;8.50;99.90;;;;;;5120464;28;20499;-80
2021/05/05 02:16:15;;;;;;;3.07;1.60;;;8.60;99.90;;;;;;5130788;28;20446;-81
2021/05/05 02:18:41;;;;;;;2.80;2.60;;;8.40;99.90;;;;;;5134440;28;20442;-80
2021/05/05 02:21:08;;;;;;;3.00;2.40;;;8.60;99.90;;;;;;5126752;28;20437;-80
2021/05/05 02:23:34;;;;;;;2.03;1.90;;;8.60;99.90;;;;;;5124486;28;20439;-79
2021/05/05 02:26:01;;;;;;;2.50;2.10;;;8.50;99.90;;;;;;5123655;28;20429;-81
2021/05/05 02:28:27;;;;;;;3.23;2.17;;;8.50;99.90;;;;;;5125587;28;20451;-80
2021/05/05 02:30:55;;;;;;;2.50;2.30;;;8.50;99.90;;;;;;5127208;28;20488;-80
2021/05/05 02:33:21;;;;;;;3.33;2.10;;;8.40;99.90;;;;;;5130587;28;21000;-79
2021/05/05 02:35:47;;;;;;;6.20;2.47;;;8.50;99.90;;;;;;5125316;28;20232;-81
2021/05/05 02:38:14;;;;;;;3.70;2.50;;;8.70;99.90;;;;;;5121828;28;20937;-80
2021/05/05 02:40:41;;;;;;;2.53;2.33;;;8.50;99.90;;;;;;5124444;28;20470;-81
2021/05/05 02:43:07;;;;;;;3.23;2.93;;;8.50;99.90;;;;;;5125590;28;20465;-80
2021/05/05 02:45:33;;;;;;;4.17;2.93;;;8.40;99.90;;;;;;5123868;28;20442;-79
2021/05/05 02:48:00;;;;;;;3.63;2.00;;;8.40;99.90;;;;;;5127154;28;20442;-80
2021/05/05 02:50:30;;;;;;;2.90;2.03;;;8.30;99.90;;;;;;5126291;28;20462;-79
2021/05/05 02:52:56;;;;;;;4.90;2.77;;;8.00;99.90;;;;;;5122113;28;20471;-80
2021/05/05 02:55:22;;;;;;;2.50;2.30;;;8.30;99.90;;;;;;5123642;28;20446;-80
2021/05/05 02:57:48;;;;;;;2.83;2.50;;;8.30;99.90;;;;;;5122591;28;20200;-80
2021/05/05 03:00:15;;;;;;;2.50;1.93;;;8.30;99.90;;;;;;5123955;28;21003;-80
2021/05/05 03:02:41;;;;;;;2.50;2.30;;;8.10;99.90;;;;;;5122422;28;20439;-80
2021/05/05 03:05:09;;;;;;;4.00;2.23;;;7.90;99.90;;;;;;5119553;28;20475;-80
2021/05/05 03:07:36;;;;;;;5.23;2.97;;;;;;;;;;5121868;28;20821;-81
2021/05/05 03:10:03;;;;;;;4.37;2.50;;;8.20;99.90;;;;;;5121086;28;20451;-81
2021/05/05 03:12:29;;;;;;;3.30;2.13;;;8.10;99.90;;;;;;5120046;28;20536;-80
2021/05/05 03:14:55;;;;;;;2.73;2.53;;;8.30;99.90;;;;;;5120428;28;20439;-81
2021/05/05 03:17:21;;;;;;;2.70;1.80;;;8.20;99.90;;;;;;5121161;28;20450;-80
2021/05/05 03:19:48;;;;;;;6.07;2.93;;;;;;;;;;5119909;28;20447;-79
2021/05/05 03:22:15;;;;;;;4.80;2.00;;;8.20;99.90;;;;;;5119428;28;20468;-80
2021/05/05 03:24:41;;;;;;;5.07;2.50;;;8.10;99.90;;;;;;5119249;28;20454;-80
2021/05/05 03:27:07;;;;;;;3.80;3.37;;;8.10;99.90;;;;;;5121290;28;20671;-81
2021/05/05 03:29:33;;;;;;;5.45;3.08;;;8.10;99.90;;;;;;5124180;28;20442;-79
2021/05/05 03:31:59;;;;;;;3.83;2.90;;;8.00;99.90;;;;;;5121694;28;20229;-80
2021/05/05 03:34:25;;;;;;;3.42;2.33;;;8.20;99.90;;;;;;5122822;28;20435;-80
2021/05/05 03:36:51;;;;;;;4.87;3.03;;;8.20;99.90;;;;;;5123370;28;20298;-82
2021/05/05 03:39:18;;;;;;;3.35;2.20;;;8.10;99.90;;;;;;5122997;28;20944;-80
2021/05/05 03:41:44;;;;;;;2.70;2.50;;;8.20;99.90;;;;;;5121188;28;20213;-79
2021/05/05 03:44:11;;;;;;;3.87;3.10;;;8.20;99.90;;;;;;5121193;28;20257;-80
2021/05/05 03:46:38;;;;;;;3.00;2.80;;;8.40;99.90;;;;;;5122563;28;20451;-80
2021/05/05 03:49:05;;;;;;;5.55;2.50;;;8.10;99.90;;;;;;5123875;28;20413;-80
2021/05/05 03:51:32;;;;;;;3.78;2.38;;;8.20;99.90;;;;;;5123669;28;20221;-79
2021/05/05 03:53:58;;;;;;;4.40;2.77;;;8.20;99.90;;;;;;5122863;28;20232;-80
2021/05/05 03:56:25;;;;;;;7.82;3.90;;;8.30;99.90;;;;;;5122514;28;20446;-79
2021/05/05 03:58:51;;;;;;;2.53;2.25;;;8.30;99.90;;;;;;5122940;28;20572;-80
2021/05/05 04:01:17;;;;;;;5.20;3.73;;;8.70;99.90;;;;;;5121916;28;20239;-80
2021/05/05 04:03:43;;;;;;;3.50;2.60;;;8.80;99.90;;;;;;5122983;28;20450;-81
2021/05/05 04:06:09;;;;;;;3.87;2.80;;;8.50;99.90;;;;;;5122062;28;20443;-80
2021/05/05 04:08:36;;;;;;;5.23;2.70;;;8.30;99.90;;;;;;5121229;28;20952;-80
2021/05/05 04:11:02;;;;;;;3.23;2.47;;;8.40;99.90;;;;;;5122032;28;20498;-79
2021/05/05 04:13:30;;;;;;;2.97;2.00;;;8.40;99.90;;;;;;5120415;28;20447;-80
2021/05/05 04:15:56;;;;;;;3.43;2.43;;;8.60;99.90;;;;;;5121740;28;20270;-80
2021/05/05 04:18:22;;;;;;;5.23;3.30;;;8.50;99.90;;;;;;5121117;28;20988;-80
2021/05/05 04:20:48;;;;;;;2.73;2.50;;;8.50;99.90;;;;;;5121502;28;20458;-80
2021/05/05 04:23:14;;;;;;;2.87;2.67;;;8.60;99.90;;;;;;5121766;28;20437;-80
2021/05/05 04:25:41;;;;;;;3.50;3.23;;;8.70;99.90;;;;;;5121720;28;20447;-80
2021/05/05 04:28:08;;;;;;;3.83;3.10;;;8.40;99.90;;;;;;5121751;28;20808;-79
2021/05/05 04:30:35;;;;;;;4.87;2.70;;;8.50;99.90;;;;;;5120820;28;21000;-80
2021/05/05 04:33:02;;;;;;;4.77;2.73;;;8.50;99.90;;;;;;5120673;28;20548;-80
2021/05/05 04:35:28;;;;;;;4.03;2.13;;;;;;;;;;5121547;28;20436;-80
2021/05/05 04:37:54;;;;;;;5.07;2.67;;;8.60;99.90;;;;;;5120942;28;20447;-80
2021/05/05 04:40:20;;;;;;;4.10;2.60;;;8.60;99.90;;;;;;5123034;28;20426;-80
2021/05/05 04:42:46;;;;;;;5.20;2.67;;;8.50;99.90;;;;;;5121377;28;20790;-79
2021/05/05 04:45:13;;;;;;;2.50;2.30;;;8.60;99.90;;;;;;5120736;28;20421;-79
2021/05/05 04:47:39;;;;;;;3.90;2.10;;;8.60;99.90;;;;;;5120443;28;20442;-80
2021/05/05 04:50:08;;;;;;;5.17;2.60;;;8.70;99.90;;;;;;5118997;28;20454;-78
2021/05/05 04:52:34;;;;;;;3.33;2.47;;;8.70;99.90;;;;;;5120596;28;20547;-80
2021/05/05 04:55:00;;;;;;;2.60;2.40;;;8.70;99.90;;;;;;5120525;28;20454;-79
2021/05/05 04:57:26;;;;;;;2.27;2.07;;;9.40;99.90;;;;;;5120269;28;20442;-79
2021/05/05 04:59:53;;;;;;;6.27;2.47;;;8.90;99.90;;;;;;5120307;28;20956;-79
2021/05/05 05:02:19;;;;;;;3.00;1.70;;;8.60;99.90;;;;;;5132651;22;20455;-82
2021/05/05 05:04:46;;;;;;;5.20;2.70;;;8.60;99.90;;;;;;5122998;28;20622;-82
2021/05/05 05:07:12;;;;;;;5.10;2.03;;;8.70;99.90;;;;;;5120971;28;20811;-81
2021/05/05 05:09:38;;;;;;;3.50;2.67;;;8.90;99.90;;;;;;5133320;28;20446;-80
2021/05/05 05:12:05;;;;;;;7.93;3.33;;;9.30;99.90;;;;;;5136928;28;20483;-80
2021/05/05 05:14:31;;;;;;;3.77;2.20;;;9.00;99.90;;;;;;5139669;28;20442;-82
2021/05/05 05:16:58;;;;;;;6.50;2.40;;;9.00;99.90;;;;;;5139209;28;20518;-82
2021/05/05 05:19:24;;;;;;;3.60;1.90;;;9.20;99.90;;;;;;5135588;28;20423;-81
2021/05/05 05:21:53;;;;;;;2.40;2.20;;;9.10;99.90;;;;;;5128888;28;20227;-82
2021/05/05 05:24:19;;;;;;;3.92;2.28;;;8.90;99.90;;;;;;5128945;28;20434;-83
2021/05/05 05:26:46;;;;;;;3.10;2.57;;;9.20;99.90;;;;;;5134708;28;20216;-82
2021/05/05 05:29:12;;;;;;;7.10;3.10;;;;;;;;;;5132918;28;20447;-82
2021/05/05 05:31:38;;;;;;;4.40;2.43;;;9.20;99.90;;;;;;5125439;28;20493;-82
2021/05/05 05:34:04;;;;;;;2.50;2.10;;;8.90;99.90;;;;;;5122756;28;20443;-80
2021/05/05 05:36:31;;;;;;;4.10;2.57;;;9.30;99.90;;;;;;5125780;28;20443;-81
2021/05/05 05:38:57;;;;;;;2.33;2.23;;;9.30;99.90;;;;;;5122812;28;20496;-82
2021/05/05 05:41:24;;;;;;;5.10;2.40;;;9.30;99.90;;;;;;5121560;28;20470;-82
2021/05/05 05:43:50;;;;;;;6.80;2.97;;;9.30;99.90;;;;;;5120728;28;20837;-82
2021/05/05 05:46:16;;;;;;;6.20;3.10;;;9.50;99.90;;;;;;5120568;28;20443;-83
2021/05/05 05:48:42;;;;;;;6.10;2.87;;;9.50;99.90;;;;;;5120664;28;20438;-81
2021/05/05 05:51:08;;;;;;;4.63;2.60;;;9.50;99.90;;;;;;5121791;28;20498;-82
2021/05/05 05:53:35;;;;;;;8.00;4.07;;;9.50;99.90;;;;;;5121559;28;20830;-83
2021/05/05 05:56:02;;;;;;;8.90;3.80;;;9.20;99.90;;;;;;5127145;28;20454;-81
2021/05/05 05:58:29;;;;;;;5.70;3.03;;;9.30;99.90;;;;;;5136094;28;20439;-79
2021/05/05 06:00:55;;;;;;;4.23;3.80;;;9.20;99.90;;;;;;5131133;28;20471;-80
2021/05/05 06:03:21;;;;;;;9.20;4.30;;;9.40;99.90;;;;;;5133457;28;20427;-81
2021/05/05 06:05:47;;;;;;;3.50;3.20;;;9.40;99.90;;;;;;5124615;28;20761;-83
2021/05/05 06:08:14;;;;;;;3.00;2.70;;;9.40;99.90;;;;;;5119491;28;20445;-83
2021/05/05 06:10:41;;;;;;;4.20;2.80;;;9.20;99.90;;;;;;5123436;28;20482;-83
2021/05/05 06:13:08;;;;;;;5.83;3.50;;;9.40;99.90;;;;;;5129530;28;20474;-83
2021/05/05 06:15:36;;;;;;;6.03;3.00;;;9.60;99.90;;;;;;5125585;28;20450;-81
2021/05/05 06:18:11;;;;;;;4.63;2.80;;;9.70;99.90;;;;;;5126885;28;20478;-82
2021/05/05 06:20:38;;;;;;;2.57;2.37;;;;;;;;;;5129697;28;20458;-84
2021/05/05 06:23:04;;;;;;;2.70;2.50;;;;;;;;;;5128949;28;20468;-84
2021/05/05 06:25:31;;;;;;;3.03;2.73;;;9.60;99.90;;;;;;5124232;28;20454;-82
2021/05/05 06:27:57;;;;;;;3.17;2.97;;;9.60;99.90;;;;;;5126446;28;20446;-84
2021/05/05 06:30:25;;;;;;;4.90;2.80;;;9.30;99.90;;;;;;5125874;28;20454;-83
2021/05/05 06:32:51;;;;;;;4.53;3.70;;;9.60;99.90;;;;;;5125136;28;20474;-83
2021/05/05 06:35:17;;;;;;;3.30;2.80;;;9.60;99.90;;;;;;5124698;28;20450;-83
2021/05/05 06:37:44;;;;;;;4.27;2.70;;;9.60;99.90;;;;;;5127518;28;20442;-83
2021/05/05 06:40:17;;;;;;;5.73;2.90;;;;;;;;;;5129340;28;20442;-82
2021/05/05 06:42:43;;;;;;;4.47;3.60;;;10.10;99.90;;;;;;5129188;28;20473;-82
2021/05/05 06:45:10;;;;;;;3.20;2.57;;;10.00;99.90;;;;;;5128263;28;20884;-83
2021/05/05 06:47:37;;;;;;;3.17;2.90;;;10.20;99.90;;;;;;5129281;28;20447;-81
2021/05/05 06:50:05;;;;;;;4.80;2.17;;;10.00;99.90;;;;;;5122512;28;20442;-79
2021/05/05 06:52:31;;;;;;;3.53;3.33;;;10.50;99.90;;;;;;5121748;28;20479;-81
2021/05/05 06:54:57;;;;;;;6.90;3.37;;;10.60;99.90;;;;;;5121148;28;20454;-82
2021/05/05 06:57:23;;;;;;;4.60;2.63;;;;;;;;;;5120433;28;20427;-83
2021/05/05 06:59:49;;;;;;;4.50;2.43;;;11.00;99.90;;;;;;5120184;28;20439;-82
2021/05/05 07:02:16;;;;;;;6.33;3.03;;;10.40;99.90;;;;;;5121581;28;20474;-82
2021/05/05 07:04:43;;;;;;;4.00;3.30;;;10.30;99.90;;;;;;5122442;28;20499;-83
2021/05/05 07:07:09;;;;;;;5.10;3.27;;;10.20;99.90;;;;;;5123315;28;20499;-80
2021/05/05 07:09:35;;;;;;;4.60;3.67;;;9.90;99.90;;;;;;5119657;28;20542;-81
2021/05/05 07:12:02;;;;;;;3.73;3.40;;;10.10;99.90;;;;;;5119657;28;20485;-81
2021/05/05 07:14:29;;;;;;;3.70;2.70;;;;;;;;;;5120478;28;20426;-83
2021/05/05 07:16:55;;;;;;;2.60;2.40;;;10.10;99.90;;;;;;5123292;28;20443;-82
2021/05/05 07:19:21;;;;;;;3.50;3.23;;;10.10;99.90;;;;;;5120015;28;20453;-84
2021/05/05 07:21:49;;;;;;;6.40;4.10;;;10.10;99.90;;;;;;5119677;28;20481;-82
2021/05/05 07:24:16;;;;;;;6.30;2.93;;;;;;;;;;5119137;28;20940;-82
2021/05/05 07:26:42;;;;;;;5.03;3.47;;;10.10;99.90;;;;;;5118838;28;20473;-82
2021/05/05 07:29:08;;;;;;;5.07;4.67;;;9.90;99.90;;;;;;5120277;28;20472;-82
2021/05/05 07:31:35;;;;;;;4.87;4.33;;;9.80;99.90;;;;;;5119325;28;20524;-82
2021/05/05 07:34:01;;;;;;;3.53;3.23;;;9.80;99.90;;;;;;5128855;28;20442;-79
2021/05/05 07:36:28;;;;;;;5.27;4.33;;;;;;;;;;5132751;28;20457;-80
2021/05/05 07:45:08;;;;;;;3.60;3.07;;;10.40;99.90;;;;;;5119023;28;20924;-82
2021/05/05 07:47:36;;;;;;;5.07;4.13;;;10.20;99.90;;;;;;5127162;28;20442;-82
2021/05/05 07:53:13;;;;;;;3.37;2.93;;;;;;;;;;5111691;28;20498;-82
2021/05/05 07:55:41;;;;;;;3.50;3.20;;;;;;;;;;5126294;28;20439;-82
2021/05/05 07:58:07;;;;;;;4.40;4.03;;;;;;;;;;5135454;28;20396;-81
2021/05/05 08:00:34;;;;;;;9.70;7.07;;;;;;;;;;5133864;28;20543;-80
2021/05/05 08:03:14;;;;;;;;;;;;;;;;;;;;;
2021/05/05 08:05:45;;;;;;;3.73;3.43;;;;;;;;;;5127496;28;20468;-80
2021/05/05 08:08:14;;;;;;;7.90;3.20;;;;;;;;;;5132968;28;20443;-82
2021/05/05 08:10:44;;;;;;;3.23;3.07;;;;;;;;;;5130056;28;20470;-83
2021/05/05 08:13:11;;;;;;;6.03;2.90;;;;;;;;;;5121308;28;20991;-83
2021/05/05 08:15:38;;;;;;;3.97;3.00;;;;;;;;;;5124729;28;20450;-82
2021/05/05 08:18:06;;;;;;;5.20;2.87;;;11.00;99.90;;;;;;5123632;28;20496;-82
2021/05/05 08:20:34;;;;;;;2.77;2.60;;;10.80;99.90;;;;;;5124333;28;20467;-82
2021/05/05 08:23:00;;;;;;;4.63;2.70;;;10.90;99.90;;;;;;5125258;28;20434;-82
2021/05/05 08:25:26;;;;;;;4.60;4.20;;;11.20;99.90;;;;;;5124098;28;20438;-82
2021/05/05 08:27:53;;;;;;;4.87;4.33;;;11.80;99.90;;;;;;5124919;28;20443;-82
2021/05/05 08:30:21;;;;;;;6.40;4.17;;;11.50;99.90;;;;;;5126332;28;20456;-82
2021/05/05 08:32:47;;;;;;;3.10;2.90;;;11.60;99.90;;;;;;5128127;28;20534;-82
2021/05/05 08:35:13;;;;;;;2.93;2.73;;;11.30;99.90;;;;;;5137133;28;20435;-81
2021/05/05 08:40:23;;;;;;;5.60;3.63;;;;;;;;;;5130109;28;20397;-82
2021/05/05 08:42:52;;;;;;;4.57;4.17;;;;;;;;;;5138991;28;20478;-84
2021/05/05 08:45:26;;;;;;;4.03;3.30;;;11.10;99.90;;;;;;5136775;28;20451;-84
2021/05/05 08:47:55;;;;;;;5.73;4.30;;;11.50;99.90;;;;;;5134987;28;20559;-81
2021/05/05 08:50:24;;;;;;;4.50;3.97;;;11.30;99.90;;;;;;5133393;28;20454;-80
2021/05/05 08:52:51;;;;;;;5.03;3.80;;;11.40;99.90;;;;;;5138888;28;20450;-79
2021/05/05 08:55:20;;;;;;;5.67;5.27;;;11.50;99.90;;;;;;5129303;28;20446;-79
2021/05/05 08:57:47;;;;;;;3.90;3.43;;;10.70;99.90;;;;;;5138724;28;20443;-81
2021/05/05 09:00:16;;;;;;;7.17;3.53;;;10.10;99.90;;;;;;5137744;28;20495;-80
2021/05/05 09:02:49;;;;;;;4.40;4.10;;;9.90;99.90;;;;;;5140132;28;20439;-83
2021/05/05 09:05:21;;;;;;;4.28;3.97;;;;;;;;;;5139806;28;20440;-83
2021/05/05 09:07:48;;;;;;;4.45;3.85;;;;;;;;;;5138163;28;20457;-83
2021/05/05 09:10:17;;;;;;;4.60;3.47;;;10.30;99.90;;;;;;5136174;28;20181;-82
2021/05/05 09:12:45;;;;;;;206.07;190.47;;;10.60;99.90;;;;;;5138879;28;20469;-83
2021/05/05 09:15:15;;;;;;;4.30;3.90;;;10.70;99.90;;;;;;5137169;28;20411;-84
2021/05/05 09:17:48;;;;;;;216.10;195.57;;;11.20;99.90;;;;;;5133781;28;20443;-86
2021/05/05 09:20:23;;;;;;;6.07;5.13;;;11.50;99.90;;;;;;5132332;28;20406;-85
2021/05/05 09:22:52;;;;;;;8.10;3.40;;;11.30;99.90;;;;;;5130397;28;20446;-85
2021/05/05 09:25:22;;;;;;;2.43;2.33;;;12.30;99.90;;;;;;5123415;28;20446;-84
2021/05/05 09:28:08;;;;;;;3.10;2.80;;;11.30;99.90;;;;;;5124499;28;20439;-84
2021/05/05 09:30:35;;;;;;;3.20;2.90;;;11.20;99.90;;;;;;5127357;28;20481;-84
2021/05/05 09:33:02;;;;;;;220.70;201.20;;;11.20;99.90;;;;;;5123513;28;20481;-84
2021/05/05 09:35:32;;;;;;;2.50;2.30;;;11.60;99.90;;;;;;5127210;28;20435;-84
2021/05/05 09:38:01;;;;;;;3.30;2.03;;;11.30;99.90;;;;;;5132915;28;20443;-83
2021/05/05 09:40:28;;;;;;;3.60;2.57;;;11.30;99.90;;;;;;5127498;28;20439;-82
2021/05/05 09:42:55;;;;;;;3.30;2.10;;;;;;;;;;5126355;28;20451;-82
2021/05/05 09:45:22;;;;;;;3.83;3.37;;;10.90;99.90;;;;;;5124079;28;20921;-83
2021/05/05 09:48:01;;;;;;;2.43;2.33;;;10.80;99.90;;;;;;5123924;28;20446;-83
2021/05/05 09:50:30;;;;;;;6.13;4.07;;;10.10;99.90;;;;;;5123134;28;20434;-83
2021/05/05 09:53:20;;;;;;;162.53;151.73;;;11.10;99.90;;;;;;5121538;28;20475;-83
2021/05/05 09:56:04;;;;;;;2.50;2.30;;;11.00;99.90;;;;;;5122122;28;20430;-84
2021/05/05 09:58:34;;;;;;;273.97;262.87;;;11.20;99.90;;;;;;5122359;28;20571;-84
2021/05/05 10:01:21;;;;;;;3.40;2.93;;;11.00;99.90;;;;;;5129908;28;20437;-84
2021/05/05 10:03:51;;;;;;;4.70;4.30;;;9.00;99.90;;;;;;5135117;28;20431;-83
2021/05/05 10:06:25;;;;;;;5.43;3.87;;;9.20;99.90;;;;;;5140100;28;20459;-83
2021/05/05 10:08:53;;;;;;;4.10;3.10;;;8.10;99.90;;;;;;5136402;28;20881;-84
2021/05/05 10:11:24;;;;;;;3.10;2.77;;;8.20;99.90;;;;;;5128026;28;20478;-83
2021/05/05 10:13:56;;;;;;;3.50;3.30;;;8.30;99.90;;;;;;5125683;28;20480;-83
2021/05/05 10:16:23;;;;;;;3.57;3.10;;;8.80;99.90;;;;;;5124405;28;20446;-85
2021/05/05 10:18:51;;;;;;;4.07;3.80;;;9.50;99.90;;;;;;5123428;28;20473;-84
2021/05/05 10:21:20;;;;;;;3.43;3.23;;;9.30;99.90;;;;;;5125699;28;20469;-84
2021/05/05 10:23:49;;;;;;;4.07;3.43;;;9.30;99.90;;;;;;5121483;28;20454;-83
2021/05/05 10:26:19;;;;;;;4.00;3.70;;;9.30;99.90;;;;;;5121687;28;20443;-83
2021/05/05 10:28:45;;;;;;;3.03;2.83;;;9.50;99.90;;;;;;5125013;28;20435;-85
2021/05/05 10:31:17;;;;;;;5.07;2.97;;;9.80;99.90;;;;;;5123795;28;20463;-82
2021/05/05 10:33:45;;;;;;;4.07;3.67;;;10.00;99.90;;;;;;5125952;28;20454;-83
2021/05/05 10:36:29;;;;;;;4.50;2.83;;;10.40;99.90;;;;;;5121545;28;20484;-83
2021/05/05 10:38:55;;;;;;;4.10;3.70;;;10.70;99.90;;;;;;5122533;28;20292;-83
2021/05/05 10:41:22;;;;;;;3.23;3.03;;;;;;;;;;5122604;28;20821;-83
2021/05/05 10:43:51;;;;;;;6.03;3.80;;;11.00;99.90;;;;;;5120912;28;20433;-84
2021/05/05 10:46:25;;;;;;;3.27;3.07;;;11.00;99.90;;;;;;5128627;28;20447;-85
2021/05/05 10:49:05;;;;;;;2.47;2.33;;;11.10;99.90;;;;;;5127418;28;20440;-82
2021/05/05 10:52:01;;;;;;;2.13;2.03;;;11.20;99.90;;;;;;5136205;28;20522;-83
2021/05/05 10:54:53;;;;;;;3.10;2.77;;;11.20;99.90;;;;;;5135994;28;20525;-83
2021/05/05 10:57:20;;;;;;;4.43;4.03;;;;;;;;;;5124748;28;20446;-83
2021/05/05 11:00:12;;;;;;;3.20;3.00;;;11.30;99.90;;;;;;5123531;28;20447;-83
2021/05/05 11:02:52;;;;;;;50.47;48.37;;;11.60;99.90;;;;;;5145233;22;20498;-82
2021/05/05 11:05:21;;;;;;;55.50;53.03;;;11.50;99.90;;;;;;5133884;28;20510;-82
2021/05/05 11:07:51;;;;;;;7.87;7.37;;;11.70;99.90;;;;;;5134996;28;20431;-81
2021/05/05 11:10:46;;;;;;;4.10;3.80;;;11.90;99.90;;;;;;5135412;28;20425;-81
2021/05/05 11:13:44;;;;;;;9.23;8.83;;;11.40;99.90;;;;;;5115737;28;20490;-83
2021/05/05 11:16:11;;;;;;;25.87;24.67;;;11.80;99.90;;;;;;5106693;28;20440;-82
2021/05/05 11:18:48;;;;;;;42.17;40.30;;;11.90;99.90;;;;;;5115339;28;20557;-82
2021/05/05 11:21:42;;;;;;;25.90;24.63;;;12.00;99.90;;;;;;5114649;28;20985;-82
2021/05/05 11:24:29;;;;;;;3.93;3.70;;;12.50;99.90;;;;;;5116737;28;20451;-83
2021/05/05 11:26:56;;;;;;;6.27;4.40;;;12.30;99.90;;;;;;5116031;28;20448;-83
2021/05/05 11:29:38;;;;;;;6.20;5.70;;;12.20;99.90;;;;;;5112900;28;20448;-79
2021/05/05 11:32:12;;;;;;;68.37;65.27;;;12.20;99.90;;;;;;5102875;28;20459;-79
2021/05/05 11:34:40;;;;;;;6.57;6.27;;;11.60;99.90;;;;;;5104645;28;20818;-79
2021/05/05 11:37:09;;;;;;;43.73;41.43;;;12.30;99.90;;;;;;5111728;28;20435;-82
2021/05/05 11:39:40;;;;;;;8.50;7.80;;;12.30;99.90;;;;;;5114890;28;20629;-83
2021/05/05 11:42:13;;;;;;;8.80;3.90;;;12.20;99.90;;;;;;5114178;28;20470;-83
2021/05/05 11:44:44;;;;;;;42.27;40.53;;;12.30;99.90;;;;;;5114946;28;20450;-82
2021/05/05 11:47:14;;;;;;;33.67;32.23;;;12.30;99.90;;;;;;5114112;28;20451;-82
2021/05/05 11:49:42;;;;;;;8.70;8.00;;;12.30;99.90;;;;;;5116370;28;20440;-82
2021/05/05 11:52:26;;;;;;;11.00;10.23;;;12.20;99.90;;;;;;5114609;28;20483;-83
2021/05/05 11:54:56;;;;;;;30.03;28.90;;;12.40;99.90;;;;;;5111816;28;20444;-83
2021/05/05 11:57:23;;;;;;;26.57;24.27;;;12.40;99.90;;;;;;5110128;28;20459;-82
2021/05/05 11:59:50;;;;;;;16.67;15.73;;;;;;;;;;5110450;28;20431;-83
2021/05/05 12:02:18;;;;;;;4.90;3.23;;;;;;;;;;5110740;28;21079;-83
2021/05/05 12:04:45;;;;;;;4.53;2.83;;;;;;;;;;5110505;28;20486;-83
2021/05/05 12:07:11;;;;;;;7.70;5.77;;;;;;;;;;5106399;28;20447;-78
2021/05/05 12:09:39;;;;;;;3.00;2.80;;;12.90;99.90;;;;;;5109285;28;20446;-80
2021/05/05 12:12:28;;;;;;;6.07;3.80;;;12.80;99.90;;;;;;5113515;28;20475;-83
2021/05/05 12:15:04;;;;;;;6.40;3.23;;;12.40;99.90;;;;;;5066541;28;20459;-84
2021/05/05 12:17:40;;;;;;;5.10;3.57;;;12.70;98.80;;;;;;5109677;28;20415;-84
2021/05/05 12:20:09;;;;;;;4.63;3.07;;;12.70;98.20;;;;;;5108794;28;20450;-83
2021/05/05 12:22:37;;;;;;;4.30;4.03;;;12.70;98.40;;;;;;5106724;28;20467;-80
2021/05/05 12:25:11;;;;;;;5.23;3.67;;;12.90;98.80;;;;;;5104990;28;20493;-79
2021/05/05 12:27:56;;;;;;;3.47;1.60;;;12.90;99.20;;;;;;5102990;28;20534;-80
2021/05/05 12:30:22;;;;;;;6.70;4.33;;;12.80;99.90;;;;;;5103633;28;20424;-80
2021/05/05 12:32:50;;;;;;;3.97;3.63;;;13.00;99.90;;;;;;5105395;28;20513;-80
2021/05/05 12:35:21;;;;;;;4.10;3.40;;;13.10;99.90;;;;;;5108567;28;20440;-80
2021/05/05 12:37:47;;;;;;;2.00;1.80;;;13.40;99.90;;;;;;5105931;28;20437;-81
2021/05/05 12:40:14;;;;;;;5.50;3.37;;;13.40;99.90;;;;;;5106151;28;20202;-81
2021/05/05 12:42:42;;;;;;;196.60;187.40;;;13.20;99.90;;;;;;5104632;28;20483;-80
2021/05/05 12:45:11;;;;;;;233.40;220.60;;;13.40;99.90;;;;;;5105166;28;20534;-81
2021/05/05 12:47:38;;;;;;;213.80;202.10;;;12.70;99.90;;;;;;5105298;28;20459;-81
2021/05/05 12:50:06;;;;;;;185.07;174.97;;;12.60;99.90;;;;;;5106845;28;20504;-80
2021/05/05 12:52:35;;;;;;;11.00;4.23;;;12.60;99.90;;;;;;5105310;28;20481;-80
2021/05/05 12:55:02;;;;;;;106.30;101.70;;;;;;;;;;5109873;28;20451;-81
2021/05/05 12:57:30;;;;;;;4.23;3.93;;;12.90;99.60;;;;;;5111084;28;20530;-81
2021/05/05 12:59:57;;;;;;;221.13;208.70;;;12.80;99.90;;;;;;5104042;28;20458;-81
2021/05/05 13:02:25;;;;;;;216.53;204.40;;;12.50;99.90;;;;;;5104077;28;20499;-82
2021/05/05 13:04:53;;;;;;;238.27;223.30;;;12.30;99.90;;;;;;5106622;28;20451;-80
2021/05/05 13:07:34;;;;;;;190.87;179.93;;;12.30;99.90;;;;;;5106570;28;20440;-80
2021/05/05 13:10:12;;;;;;;201.07;189.67;;;12.40;99.90;;;;;;5106607;28;20903;-82
2021/05/05 13:12:42;;;;;;;224.90;211.47;;;12.80;99.90;;;;;;5104610;28;20936;-81
2021/05/05 13:15:25;;;;;;;19.17;18.00;;;12.70;99.90;;;;;;5104584;28;20448;-81
2021/05/05 13:29:58;;;;;;;139.30;132.57;;;12.60;99.90;;;;;;5104316;28;20904;-81
2021/05/05 13:32:37;;;;;;;152.23;144.63;;;12.50;99.90;;;;;;5104847;28;20460;-81
2021/05/05 13:35:26;;;;;;;176.07;166.53;;;12.60;99.90;;;;;;5104435;28;20791;-81